sensor_id;sensor_type;location;lat;lon;timestamp;P1;durP1;ratioP1;P2;durP2;ratioP2
46288;SDS011;63105;46.158;14.604;2023-07-20T00:00:21;3.40;;;1.37;;
46288;SDS011;63105;46.158;14.604;2023-07-20T00:02:49;3.88;;;1.40;;
46288;SDS011;63105;46.158;14.604;2023-07-20T00:05:15;3.20;;;1.50;;
46288;SDS011;63105;46.158;14.604;2023-07-20T00:07:43;3.28;;;1.58;;
46288;SDS011;63105;46.158;14.604;2023-07-20T00:10:08;3.55;;;1.30;;
46288;SDS011;63105;46.158;14.604;2023-07-20T00:12:33;4.50;;;1.30;;
46288;SDS011;63105;46.158;14.604;2023-07-20T00:14:58;2.92;;;1.30;;
46288;SDS011;63105;46.158;14.604;2023-07-20T00:17:24;3.60;;;1.10;;
46288;SDS011;63105;46.158;14.604;2023-07-20T00:19:49;2.90;;;1.33;;
46288;SDS011;63105;46.158;14.604;2023-07-20T00:22:14;4.45;;;1.50;;
46288;SDS011;63105;46.158;14.604;2023-07-20T00:24:39;3.05;;;1.50;;
46288;SDS011;63105;46.158;14.604;2023-07-20T00:27:05;3.10;;;1.33;;
46288;SDS011;63105;46.158;14.604;2023-07-20T00:29:30;2.83;;;1.20;;
46288;SDS011;63105;46.158;14.604;2023-07-20T00:31:55;3.13;;;1.17;;
46288;SDS011;63105;46.158;14.604;2023-07-20T00:34:21;3.13;;;1.35;;
46288;SDS011;63105;46.158;14.604;2023-07-20T00:36:46;3.05;;;1.30;;
46288;SDS011;63105;46.158;14.604;2023-07-20T00:39:11;3.10;;;1.40;;
46288;SDS011;63105;46.158;14.604;2023-07-20T00:41:36;3.77;;;1.63;;
46288;SDS011;63105;46.158;14.604;2023-07-20T00:44:02;3.20;;;1.60;;
46288;SDS011;63105;46.158;14.604;2023-07-20T00:46:28;3.90;;;1.60;;
46288;SDS011;63105;46.158;14.604;2023-07-20T00:48:53;3.83;;;1.70;;
46288;SDS011;63105;46.158;14.604;2023-07-20T00:51:19;2.40;;;1.20;;
46288;SDS011;63105;46.158;14.604;2023-07-20T00:53:44;3.10;;;1.38;;
46288;SDS011;63105;46.158;14.604;2023-07-20T00:56:10;2.97;;;1.33;;
46288;SDS011;63105;46.158;14.604;2023-07-20T00:58:35;2.97;;;1.48;;
46288;SDS011;63105;46.158;14.604;2023-07-20T01:01:01;3.83;;;1.65;;
46288;SDS011;63105;46.158;14.604;2023-07-20T01:03:26;3.53;;;1.40;;
46288;SDS011;63105;46.158;14.604;2023-07-20T01:05:56;3.75;;;1.38;;
46288;SDS011;63105;46.158;14.604;2023-07-20T01:08:32;2.97;;;1.52;;
46288;SDS011;63105;46.158;14.604;2023-07-20T01:16:09;4.20;;;1.52;;
46288;SDS011;63105;46.158;14.604;2023-07-20T01:18:34;4.07;;;1.30;;
46288;SDS011;63105;46.158;14.604;2023-07-20T01:21:01;2.50;;;1.27;;
46288;SDS011;63105;46.158;14.604;2023-07-20T01:31:35;2.57;;;1.37;;
46288;SDS011;63105;46.158;14.604;2023-07-20T01:34:01;2.50;;;1.15;;
46288;SDS011;63105;46.158;14.604;2023-07-20T01:36:33;4.15;;;1.50;;
46288;SDS011;63105;46.158;14.604;2023-07-20T01:38:59;4.28;;;1.88;;
46288;SDS011;63105;46.158;14.604;2023-07-20T01:41:24;4.28;;;1.42;;
46288;SDS011;63105;46.158;14.604;2023-07-20T01:43:50;5.15;;;2.22;;
46288;SDS011;63105;46.158;14.604;2023-07-20T01:46:15;4.60;;;2.00;;
46288;SDS011;63105;46.158;14.604;2023-07-20T01:48:40;3.38;;;1.90;;
46288;SDS011;63105;46.158;14.604;2023-07-20T01:51:05;3.42;;;1.90;;
46288;SDS011;63105;46.158;14.604;2023-07-20T01:53:31;4.85;;;1.95;;
46288;SDS011;63105;46.158;14.604;2023-07-20T01:55:56;4.93;;;2.00;;
46288;SDS011;63105;46.158;14.604;2023-07-20T01:58:22;4.47;;;2.15;;
46288;SDS011;63105;46.158;14.604;2023-07-20T02:00:47;3.70;;;2.03;;
46288;SDS011;63105;46.158;14.604;2023-07-20T02:03:12;4.80;;;2.10;;
46288;SDS011;63105;46.158;14.604;2023-07-20T02:05:38;4.40;;;2.20;;
46288;SDS011;63105;46.158;14.604;2023-07-20T02:08:03;5.28;;;2.28;;
46288;SDS011;63105;46.158;14.604;2023-07-20T02:10:28;6.30;;;2.88;;
46288;SDS011;63105;46.158;14.604;2023-07-20T02:12:53;6.37;;;2.53;;
46288;SDS011;63105;46.158;14.604;2023-07-20T02:15:19;3.60;;;2.00;;
46288;SDS011;63105;46.158;14.604;2023-07-20T02:17:44;6.63;;;2.83;;
46288;SDS011;63105;46.158;14.604;2023-07-20T02:20:10;4.95;;;2.55;;
46288;SDS011;63105;46.158;14.604;2023-07-20T02:22:36;5.07;;;2.40;;
46288;SDS011;63105;46.158;14.604;2023-07-20T02:25:01;4.65;;;2.70;;
46288;SDS011;63105;46.158;14.604;2023-07-20T02:27:26;4.47;;;2.20;;
46288;SDS011;63105;46.158;14.604;2023-07-20T02:29:51;4.17;;;2.10;;
46288;SDS011;63105;46.158;14.604;2023-07-20T02:32:17;5.45;;;2.30;;
46288;SDS011;63105;46.158;14.604;2023-07-20T02:34:42;5.73;;;2.10;;
46288;SDS011;63105;46.158;14.604;2023-07-20T02:37:07;3.80;;;2.10;;
46288;SDS011;63105;46.158;14.604;2023-07-20T02:39:33;3.83;;;2.10;;
46288;SDS011;63105;46.158;14.604;2023-07-20T02:41:58;3.50;;;1.63;;
46288;SDS011;63105;46.158;14.604;2023-07-20T02:44:23;3.70;;;1.87;;
46288;SDS011;63105;46.158;14.604;2023-07-20T02:46:48;3.83;;;1.88;;
46288;SDS011;63105;46.158;14.604;2023-07-20T02:49:17;4.93;;;1.80;;
46288;SDS011;63105;46.158;14.604;2023-07-20T02:51:42;3.50;;;2.00;;
46288;SDS011;63105;46.158;14.604;2023-07-20T02:54:07;4.83;;;1.80;;
46288;SDS011;63105;46.158;14.604;2023-07-20T02:56:33;4.68;;;2.10;;
46288;SDS011;63105;46.158;14.604;2023-07-20T02:58:58;3.60;;;1.87;;
46288;SDS011;63105;46.158;14.604;2023-07-20T03:01:23;4.50;;;1.67;;
46288;SDS011;63105;46.158;14.604;2023-07-20T03:03:48;4.10;;;1.90;;
46288;SDS011;63105;46.158;14.604;2023-07-20T03:06:14;3.97;;;1.70;;
46288;SDS011;63105;46.158;14.604;2023-07-20T03:08:40;5.07;;;1.65;;
46288;SDS011;63105;46.158;14.604;2023-07-20T03:11:06;3.53;;;2.03;;
46288;SDS011;63105;46.158;14.604;2023-07-20T03:13:31;3.38;;;1.70;;
46288;SDS011;63105;46.158;14.604;2023-07-20T03:15:57;3.20;;;1.50;;
46288;SDS011;63105;46.158;14.604;2023-07-20T03:18:22;4.00;;;1.60;;
46288;SDS011;63105;46.158;14.604;2023-07-20T03:20:47;3.10;;;1.65;;
46288;SDS011;63105;46.158;14.604;2023-07-20T03:23:13;3.30;;;1.50;;
46288;SDS011;63105;46.158;14.604;2023-07-20T03:25:40;3.75;;;1.67;;
46288;SDS011;63105;46.158;14.604;2023-07-20T03:28:05;3.53;;;2.00;;
46288;SDS011;63105;46.158;14.604;2023-07-20T03:30:30;3.72;;;1.77;;
46288;SDS011;63105;46.158;14.604;2023-07-20T03:32:56;3.70;;;1.80;;
46288;SDS011;63105;46.158;14.604;2023-07-20T03:35:21;3.08;;;1.70;;
46288;SDS011;63105;46.158;14.604;2023-07-20T03:37:47;3.60;;;1.67;;
46288;SDS011;63105;46.158;14.604;2023-07-20T03:40:12;3.00;;;1.50;;
46288;SDS011;63105;46.158;14.604;2023-07-20T03:42:37;3.22;;;1.50;;
46288;SDS011;63105;46.158;14.604;2023-07-20T03:45:03;3.75;;;1.67;;
46288;SDS011;63105;46.158;14.604;2023-07-20T03:47:29;3.45;;;1.58;;
46288;SDS011;63105;46.158;14.604;2023-07-20T03:49:54;3.53;;;1.70;;
46288;SDS011;63105;46.158;14.604;2023-07-20T03:52:19;3.20;;;1.60;;
46288;SDS011;63105;46.158;14.604;2023-07-20T03:54:45;3.40;;;1.80;;
46288;SDS011;63105;46.158;14.604;2023-07-20T03:57:10;3.58;;;2.03;;
46288;SDS011;63105;46.158;14.604;2023-07-20T03:59:36;3.42;;;1.90;;
46288;SDS011;63105;46.158;14.604;2023-07-20T04:02:02;3.20;;;1.75;;
46288;SDS011;63105;46.158;14.604;2023-07-20T04:04:27;3.33;;;1.90;;
46288;SDS011;63105;46.158;14.604;2023-07-20T04:06:53;4.03;;;1.95;;
46288;SDS011;63105;46.158;14.604;2023-07-20T04:09:18;2.97;;;1.50;;
46288;SDS011;63105;46.158;14.604;2023-07-20T04:11:43;3.00;;;1.60;;
46288;SDS011;63105;46.158;14.604;2023-07-20T04:14:08;4.53;;;1.80;;
46288;SDS011;63105;46.158;14.604;2023-07-20T04:16:33;5.53;;;1.90;;
46288;SDS011;63105;46.158;14.604;2023-07-20T04:18:58;3.45;;;1.70;;
46288;SDS011;63105;46.158;14.604;2023-07-20T04:21:25;3.53;;;1.70;;
46288;SDS011;63105;46.158;14.604;2023-07-20T04:23:50;3.50;;;1.60;;
46288;SDS011;63105;46.158;14.604;2023-07-20T04:26:15;4.07;;;2.10;;
46288;SDS011;63105;46.158;14.604;2023-07-20T04:28:41;3.85;;;1.80;;
46288;SDS011;63105;46.158;14.604;2023-07-20T04:31:13;5.65;;;1.90;;
46288;SDS011;63105;46.158;14.604;2023-07-20T04:33:39;3.15;;;1.80;;
46288;SDS011;63105;46.158;14.604;2023-07-20T04:36:04;3.15;;;1.70;;
46288;SDS011;63105;46.158;14.604;2023-07-20T04:38:30;3.90;;;1.75;;
46288;SDS011;63105;46.158;14.604;2023-07-20T04:40:55;3.50;;;1.77;;
46288;SDS011;63105;46.158;14.604;2023-07-20T04:43:20;3.70;;;1.90;;
46288;SDS011;63105;46.158;14.604;2023-07-20T04:45:45;3.43;;;1.70;;
46288;SDS011;63105;46.158;14.604;2023-07-20T04:48:11;3.63;;;1.73;;
46288;SDS011;63105;46.158;14.604;2023-07-20T04:50:37;3.58;;;1.90;;
46288;SDS011;63105;46.158;14.604;2023-07-20T04:53:03;3.60;;;1.70;;
46288;SDS011;63105;46.158;14.604;2023-07-20T04:55:28;3.38;;;1.55;;
46288;SDS011;63105;46.158;14.604;2023-07-20T04:57:53;3.50;;;1.90;;
46288;SDS011;63105;46.158;14.604;2023-07-20T05:00:19;3.22;;;1.60;;
46288;SDS011;63105;46.158;14.604;2023-07-20T05:02:44;3.13;;;1.60;;
46288;SDS011;63105;46.158;14.604;2023-07-20T05:05:09;3.63;;;1.87;;
46288;SDS011;63105;46.158;14.604;2023-07-20T05:07:35;2.80;;;1.47;;
46288;SDS011;63105;46.158;14.604;2023-07-20T05:10:00;3.17;;;1.87;;
46288;SDS011;63105;46.158;14.604;2023-07-20T05:12:25;3.10;;;1.75;;
46288;SDS011;63105;46.158;14.604;2023-07-20T05:14:50;3.43;;;1.83;;
46288;SDS011;63105;46.158;14.604;2023-07-20T05:17:16;3.80;;;1.83;;
46288;SDS011;63105;46.158;14.604;2023-07-20T05:19:41;3.83;;;2.57;;
46288;SDS011;63105;46.158;14.604;2023-07-20T05:22:06;5.32;;;3.08;;
46288;SDS011;63105;46.158;14.604;2023-07-20T05:24:31;5.47;;;3.00;;
46288;SDS011;63105;46.158;14.604;2023-07-20T05:26:57;5.20;;;3.00;;
46288;SDS011;63105;46.158;14.604;2023-07-20T05:29:23;5.65;;;3.20;;
46288;SDS011;63105;46.158;14.604;2023-07-20T05:31:48;4.47;;;2.30;;
46288;SDS011;63105;46.158;14.604;2023-07-20T05:34:13;3.92;;;2.20;;
46288;SDS011;63105;46.158;14.604;2023-07-20T05:36:39;4.15;;;1.95;;
46288;SDS011;63105;46.158;14.604;2023-07-20T05:39:04;4.07;;;2.20;;
46288;SDS011;63105;46.158;14.604;2023-07-20T05:41:29;4.03;;;2.20;;
46288;SDS011;63105;46.158;14.604;2023-07-20T05:43:55;3.70;;;2.00;;
46288;SDS011;63105;46.158;14.604;2023-07-20T05:46:20;3.40;;;2.20;;
46288;SDS011;63105;46.158;14.604;2023-07-20T05:48:45;5.17;;;2.47;;
46288;SDS011;63105;46.158;14.604;2023-07-20T05:51:10;5.97;;;2.57;;
46288;SDS011;63105;46.158;14.604;2023-07-20T05:53:36;5.03;;;2.40;;
46288;SDS011;63105;46.158;14.604;2023-07-20T05:56:01;6.50;;;2.45;;
46288;SDS011;63105;46.158;14.604;2023-07-20T05:58:27;6.00;;;2.88;;
46288;SDS011;63105;46.158;14.604;2023-07-20T06:00:53;4.00;;;2.30;;
46288;SDS011;63105;46.158;14.604;2023-07-20T06:03:18;5.77;;;2.47;;
46288;SDS011;63105;46.158;14.604;2023-07-20T06:05:43;4.35;;;2.58;;
46288;SDS011;63105;46.158;14.604;2023-07-20T06:08:08;5.07;;;2.90;;
46288;SDS011;63105;46.158;14.604;2023-07-20T06:10:34;4.90;;;2.70;;
46288;SDS011;63105;46.158;14.604;2023-07-20T06:12:59;6.17;;;2.70;;
46288;SDS011;63105;46.158;14.604;2023-07-20T06:15:42;4.13;;;2.60;;
46288;SDS011;63105;46.158;14.604;2023-07-20T06:18:08;5.88;;;2.50;;
46288;SDS011;63105;46.158;14.604;2023-07-20T06:20:33;4.90;;;2.38;;
46288;SDS011;63105;46.158;14.604;2023-07-20T06:22:58;3.67;;;2.40;;
46288;SDS011;63105;46.158;14.604;2023-07-20T06:25:23;5.83;;;3.30;;
46288;SDS011;63105;46.158;14.604;2023-07-20T06:27:49;6.20;;;2.87;;
46288;SDS011;63105;46.158;14.604;2023-07-20T06:30:16;4.20;;;2.80;;
46288;SDS011;63105;46.158;14.604;2023-07-20T06:32:41;4.73;;;2.60;;
46288;SDS011;63105;46.158;14.604;2023-07-20T06:35:06;4.07;;;2.30;;
46288;SDS011;63105;46.158;14.604;2023-07-20T06:37:33;3.97;;;2.33;;
46288;SDS011;63105;46.158;14.604;2023-07-20T06:39:58;5.90;;;2.90;;
46288;SDS011;63105;46.158;14.604;2023-07-20T06:42:23;4.17;;;2.50;;
46288;SDS011;63105;46.158;14.604;2023-07-20T06:44:48;4.70;;;2.60;;
46288;SDS011;63105;46.158;14.604;2023-07-20T06:47:14;4.13;;;2.60;;
46288;SDS011;63105;46.158;14.604;2023-07-20T06:49:39;4.40;;;2.60;;
46288;SDS011;63105;46.158;14.604;2023-07-20T06:52:04;4.30;;;3.00;;
46288;SDS011;63105;46.158;14.604;2023-07-20T06:54:29;4.43;;;2.60;;
46288;SDS011;63105;46.158;14.604;2023-07-20T06:56:55;4.30;;;2.63;;
46288;SDS011;63105;46.158;14.604;2023-07-20T06:59:20;5.85;;;2.88;;
46288;SDS011;63105;46.158;14.604;2023-07-20T07:01:46;5.60;;;3.05;;
46288;SDS011;63105;46.158;14.604;2023-07-20T07:04:11;4.40;;;2.43;;
46288;SDS011;63105;46.158;14.604;2023-07-20T07:06:36;6.30;;;2.73;;
46288;SDS011;63105;46.158;14.604;2023-07-20T07:09:02;5.85;;;2.80;;
46288;SDS011;63105;46.158;14.604;2023-07-20T07:11:28;4.90;;;2.60;;
46288;SDS011;63105;46.158;14.604;2023-07-20T07:13:53;6.13;;;3.50;;
46288;SDS011;63105;46.158;14.604;2023-07-20T07:16:19;6.40;;;3.23;;
46288;SDS011;63105;46.158;14.604;2023-07-20T07:18:47;4.05;;;2.55;;
46288;SDS011;63105;46.158;14.604;2023-07-20T07:21:12;5.60;;;2.75;;
46288;SDS011;63105;46.158;14.604;2023-07-20T07:23:38;7.37;;;3.63;;
46288;SDS011;63105;46.158;14.604;2023-07-20T07:26:03;7.32;;;3.40;;
46288;SDS011;63105;46.158;14.604;2023-07-20T07:28:29;4.93;;;2.70;;
46288;SDS011;63105;46.158;14.604;2023-07-20T07:30:54;6.93;;;3.97;;
46288;SDS011;63105;46.158;14.604;2023-07-20T07:33:19;5.03;;;2.65;;
46288;SDS011;63105;46.158;14.604;2023-07-20T07:35:45;4.97;;;3.00;;
46288;SDS011;63105;46.158;14.604;2023-07-20T07:38:10;5.53;;;3.40;;
46288;SDS011;63105;46.158;14.604;2023-07-20T07:40:35;5.70;;;3.00;;
46288;SDS011;63105;46.158;14.604;2023-07-20T07:43:01;5.90;;;3.20;;
46288;SDS011;63105;46.158;14.604;2023-07-20T07:45:26;5.63;;;3.07;;
46288;SDS011;63105;46.158;14.604;2023-07-20T07:47:51;5.87;;;3.10;;
46288;SDS011;63105;46.158;14.604;2023-07-20T07:50:16;5.40;;;3.03;;
46288;SDS011;63105;46.158;14.604;2023-07-20T07:52:41;5.43;;;2.80;;
46288;SDS011;63105;46.158;14.604;2023-07-20T07:55:07;4.67;;;2.73;;
46288;SDS011;63105;46.158;14.604;2023-07-20T07:57:32;5.90;;;2.97;;
46288;SDS011;63105;46.158;14.604;2023-07-20T07:59:57;4.13;;;2.60;;
46288;SDS011;63105;46.158;14.604;2023-07-20T08:02:22;5.07;;;2.67;;
46288;SDS011;63105;46.158;14.604;2023-07-20T08:04:47;5.43;;;2.87;;
46288;SDS011;63105;46.158;14.604;2023-07-20T08:07:13;5.15;;;2.50;;
46288;SDS011;63105;46.158;14.604;2023-07-20T08:09:38;5.13;;;2.43;;
46288;SDS011;63105;46.158;14.604;2023-07-20T08:12:03;4.27;;;2.50;;
46288;SDS011;63105;46.158;14.604;2023-07-20T08:14:29;4.15;;;2.47;;
46288;SDS011;63105;46.158;14.604;2023-07-20T08:16:54;5.77;;;2.47;;
46288;SDS011;63105;46.158;14.604;2023-07-20T08:19:19;4.97;;;2.63;;
46288;SDS011;63105;46.158;14.604;2023-07-20T08:21:45;5.05;;;2.33;;
46288;SDS011;63105;46.158;14.604;2023-07-20T08:24:10;4.10;;;2.27;;
46288;SDS011;63105;46.158;14.604;2023-07-20T08:26:35;4.03;;;2.50;;
46288;SDS011;63105;46.158;14.604;2023-07-20T08:29:00;4.80;;;2.73;;
46288;SDS011;63105;46.158;14.604;2023-07-20T08:31:25;4.47;;;2.33;;
46288;SDS011;63105;46.158;14.604;2023-07-20T08:33:53;4.10;;;2.38;;
46288;SDS011;63105;46.158;14.604;2023-07-20T08:36:18;4.20;;;2.40;;
46288;SDS011;63105;46.158;14.604;2023-07-20T08:38:44;3.80;;;2.15;;
46288;SDS011;63105;46.158;14.604;2023-07-20T08:41:09;3.77;;;1.90;;
46288;SDS011;63105;46.158;14.604;2023-07-20T08:43:34;3.90;;;1.80;;
46288;SDS011;63105;46.158;14.604;2023-07-20T08:46:00;4.00;;;1.90;;
46288;SDS011;63105;46.158;14.604;2023-07-20T08:48:27;4.07;;;2.20;;
46288;SDS011;63105;46.158;14.604;2023-07-20T08:50:52;5.77;;;1.87;;
46288;SDS011;63105;46.158;14.604;2023-07-20T08:53:19;3.58;;;1.95;;
46288;SDS011;63105;46.158;14.604;2023-07-20T08:55:45;4.18;;;2.00;;
46288;SDS011;63105;46.158;14.604;2023-07-20T08:58:12;4.13;;;2.20;;
46288;SDS011;63105;46.158;14.604;2023-07-20T09:00:37;4.82;;;2.17;;
46288;SDS011;63105;46.158;14.604;2023-07-20T09:03:03;3.30;;;1.95;;
46288;SDS011;63105;46.158;14.604;2023-07-20T09:05:28;3.63;;;1.80;;
46288;SDS011;63105;46.158;14.604;2023-07-20T09:07:54;5.32;;;2.20;;
46288;SDS011;63105;46.158;14.604;2023-07-20T09:10:20;3.90;;;1.70;;
46288;SDS011;63105;46.158;14.604;2023-07-20T09:12:46;3.35;;;1.80;;
46288;SDS011;63105;46.158;14.604;2023-07-20T09:15:11;3.97;;;1.90;;
46288;SDS011;63105;46.158;14.604;2023-07-20T09:17:37;4.38;;;1.90;;
46288;SDS011;63105;46.158;14.604;2023-07-20T09:20:05;4.40;;;2.08;;
46288;SDS011;63105;46.158;14.604;2023-07-20T09:22:33;3.63;;;2.00;;
46288;SDS011;63105;46.158;14.604;2023-07-20T09:24:58;3.83;;;1.60;;
46288;SDS011;63105;46.158;14.604;2023-07-20T09:27:39;3.17;;;1.60;;
46288;SDS011;63105;46.158;14.604;2023-07-20T09:30:05;3.70;;;1.73;;
46288;SDS011;63105;46.158;14.604;2023-07-20T09:32:35;3.75;;;1.50;;
46288;SDS011;63105;46.158;14.604;2023-07-20T09:35:03;3.00;;;1.60;;
46288;SDS011;63105;46.158;14.604;2023-07-20T09:37:28;3.05;;;1.70;;
46288;SDS011;63105;46.158;14.604;2023-07-20T09:39:53;3.08;;;1.50;;
46288;SDS011;63105;46.158;14.604;2023-07-20T09:42:19;2.97;;;1.70;;
46288;SDS011;63105;46.158;14.604;2023-07-20T09:44:45;3.30;;;1.50;;
46288;SDS011;63105;46.158;14.604;2023-07-20T09:47:11;2.88;;;1.50;;
46288;SDS011;63105;46.158;14.604;2023-07-20T09:49:39;3.15;;;1.70;;
46288;SDS011;63105;46.158;14.604;2023-07-20T09:52:05;3.05;;;1.52;;
46288;SDS011;63105;46.158;14.604;2023-07-20T09:54:31;2.83;;;1.70;;
46288;SDS011;63105;46.158;14.604;2023-07-20T09:56:57;2.80;;;1.50;;
46288;SDS011;63105;46.158;14.604;2023-07-20T09:59:23;2.60;;;1.35;;
46288;SDS011;63105;46.158;14.604;2023-07-20T10:01:48;3.93;;;1.73;;
46288;SDS011;63105;46.158;14.604;2023-07-20T10:04:14;2.85;;;1.50;;
46288;SDS011;63105;46.158;14.604;2023-07-20T10:06:42;3.30;;;1.75;;
46288;SDS011;63105;46.158;14.604;2023-07-20T10:09:08;3.72;;;1.60;;
46288;SDS011;63105;46.158;14.604;2023-07-20T10:11:35;3.38;;;1.50;;
46288;SDS011;63105;46.158;14.604;2023-07-20T10:14:02;3.03;;;1.50;;
46288;SDS011;63105;46.158;14.604;2023-07-20T10:16:29;4.00;;;1.50;;
46288;SDS011;63105;46.158;14.604;2023-07-20T10:19:02;3.33;;;1.40;;
46288;SDS011;63105;46.158;14.604;2023-07-20T10:21:29;2.70;;;1.40;;
46288;SDS011;63105;46.158;14.604;2023-07-20T10:23:55;2.25;;;1.30;;
46288;SDS011;63105;46.158;14.604;2023-07-20T10:26:21;2.63;;;1.40;;
46288;SDS011;63105;46.158;14.604;2023-07-20T10:28:46;3.43;;;1.50;;
46288;SDS011;63105;46.158;14.604;2023-07-20T10:31:12;3.17;;;1.50;;
46288;SDS011;63105;46.158;14.604;2023-07-20T10:33:37;3.03;;;1.55;;
46288;SDS011;63105;46.158;14.604;2023-07-20T10:36:04;2.90;;;1.50;;
46288;SDS011;63105;46.158;14.604;2023-07-20T10:38:40;3.45;;;1.50;;
46288;SDS011;63105;46.158;14.604;2023-07-20T10:41:50;2.80;;;1.52;;
46288;SDS011;63105;46.158;14.604;2023-07-20T10:43:51;3.35;;;1.35;;
46288;SDS011;63105;46.158;14.604;2023-07-20T10:46:36;2.73;;;1.40;;
46288;SDS011;63105;46.158;14.604;2023-07-20T10:49:08;2.72;;;1.52;;
46288;SDS011;63105;46.158;14.604;2023-07-20T10:51:44;3.30;;;1.63;;
46288;SDS011;63105;46.158;14.604;2023-07-20T10:56:40;3.08;;;1.58;;
46288;SDS011;63105;46.158;14.604;2023-07-20T10:59:17;2.90;;;1.30;;
46288;SDS011;63105;46.158;14.604;2023-07-20T11:01:43;3.33;;;1.70;;
46288;SDS011;63105;46.158;14.604;2023-07-20T11:04:09;2.60;;;1.38;;
46288;SDS011;63105;46.158;14.604;2023-07-20T11:06:34;3.10;;;1.40;;
46288;SDS011;63105;46.158;14.604;2023-07-20T11:09:08;2.90;;;1.45;;
46288;SDS011;63105;46.158;14.604;2023-07-20T11:11:36;3.40;;;1.50;;
46288;SDS011;63105;46.158;14.604;2023-07-20T11:14:08;3.15;;;1.80;;
46288;SDS011;63105;46.158;14.604;2023-07-20T11:16:34;2.83;;;1.50;;
46288;SDS011;63105;46.158;14.604;2023-07-20T11:19:00;3.13;;;1.70;;
46288;SDS011;63105;46.158;14.604;2023-07-20T11:21:25;3.60;;;1.55;;
46288;SDS011;63105;46.158;14.604;2023-07-20T11:23:51;3.10;;;1.63;;
46288;SDS011;63105;46.158;14.604;2023-07-20T11:26:17;3.05;;;1.70;;
46288;SDS011;63105;46.158;14.604;2023-07-20T11:28:47;3.50;;;1.80;;
46288;SDS011;63105;46.158;14.604;2023-07-20T11:31:14;2.95;;;1.70;;
46288;SDS011;63105;46.158;14.604;2023-07-20T11:33:41;3.00;;;1.45;;
46288;SDS011;63105;46.158;14.604;2023-07-20T11:36:07;3.40;;;1.83;;
46288;SDS011;63105;46.158;14.604;2023-07-20T11:38:33;3.35;;;1.70;;
46288;SDS011;63105;46.158;14.604;2023-07-20T11:40:58;3.23;;;1.70;;
46288;SDS011;63105;46.158;14.604;2023-07-20T11:43:23;4.10;;;1.67;;
46288;SDS011;63105;46.158;14.604;2023-07-20T11:45:49;3.65;;;1.70;;
46288;SDS011;63105;46.158;14.604;2023-07-20T11:48:15;2.77;;;1.50;;
46288;SDS011;63105;46.158;14.604;2023-07-20T11:50:40;3.20;;;1.67;;
46288;SDS011;63105;46.158;14.604;2023-07-20T11:53:05;2.50;;;1.50;;
46288;SDS011;63105;46.158;14.604;2023-07-20T11:55:31;3.72;;;1.67;;
46288;SDS011;63105;46.158;14.604;2023-07-20T12:00:27;3.00;;;1.80;;
46288;SDS011;63105;46.158;14.604;2023-07-20T12:02:53;3.50;;;1.90;;
46288;SDS011;63105;46.158;14.604;2023-07-20T12:05:18;3.13;;;1.60;;
46288;SDS011;63105;46.158;14.604;2023-07-20T12:07:44;3.28;;;1.90;;
46288;SDS011;63105;46.158;14.604;2023-07-20T12:10:12;3.90;;;2.00;;
46288;SDS011;63105;46.158;14.604;2023-07-20T12:12:38;4.18;;;2.00;;
46288;SDS011;63105;46.158;14.604;2023-07-20T12:15:16;3.40;;;1.73;;
46288;SDS011;63105;46.158;14.604;2023-07-20T12:17:42;3.10;;;1.70;;
46288;SDS011;63105;46.158;14.604;2023-07-20T12:20:07;3.00;;;1.98;;
46288;SDS011;63105;46.158;14.604;2023-07-20T12:22:37;3.05;;;1.50;;
46288;SDS011;63105;46.158;14.604;2023-07-20T12:25:05;3.83;;;1.90;;
46288;SDS011;63105;46.158;14.604;2023-07-20T12:27:30;4.05;;;1.88;;
46288;SDS011;63105;46.158;14.604;2023-07-20T12:29:55;4.87;;;1.97;;
46288;SDS011;63105;46.158;14.604;2023-07-20T12:32:22;4.30;;;1.70;;
46288;SDS011;63105;46.158;14.604;2023-07-20T12:34:47;2.90;;;1.70;;
46288;SDS011;63105;46.158;14.604;2023-07-20T12:37:12;3.60;;;1.90;;
46288;SDS011;63105;46.158;14.604;2023-07-20T12:39:37;3.93;;;1.90;;
46288;SDS011;63105;46.158;14.604;2023-07-20T12:42:04;3.42;;;1.80;;
46288;SDS011;63105;46.158;14.604;2023-07-20T12:44:29;2.97;;;1.58;;
46288;SDS011;63105;46.158;14.604;2023-07-20T12:46:55;3.53;;;1.75;;
46288;SDS011;63105;46.158;14.604;2023-07-20T12:49:20;3.23;;;1.70;;
46288;SDS011;63105;46.158;14.604;2023-07-20T12:51:45;3.60;;;1.90;;
46288;SDS011;63105;46.158;14.604;2023-07-20T12:54:10;3.83;;;1.90;;
46288;SDS011;63105;46.158;14.604;2023-07-20T12:56:35;3.73;;;1.83;;
46288;SDS011;63105;46.158;14.604;2023-07-20T12:59:01;3.60;;;1.95;;
46288;SDS011;63105;46.158;14.604;2023-07-20T13:01:27;3.80;;;1.92;;
46288;SDS011;63105;46.158;14.604;2023-07-20T13:03:53;3.50;;;1.80;;
46288;SDS011;63105;46.158;14.604;2023-07-20T13:06:19;3.40;;;1.90;;
46288;SDS011;63105;46.158;14.604;2023-07-20T13:08:44;3.78;;;2.10;;
46288;SDS011;63105;46.158;14.604;2023-07-20T13:11:10;3.47;;;2.00;;
46288;SDS011;63105;46.158;14.604;2023-07-20T13:13:35;3.23;;;1.87;;
46288;SDS011;63105;46.158;14.604;2023-07-20T13:16:00;3.00;;;1.73;;
46288;SDS011;63105;46.158;14.604;2023-07-20T13:18:25;3.00;;;1.60;;
46288;SDS011;63105;46.158;14.604;2023-07-20T13:20:50;3.53;;;1.90;;
46288;SDS011;63105;46.158;14.604;2023-07-20T13:23:16;3.83;;;1.63;;
46288;SDS011;63105;46.158;14.604;2023-07-20T13:25:41;3.30;;;1.70;;
46288;SDS011;63105;46.158;14.604;2023-07-20T13:28:07;3.80;;;1.83;;
46288;SDS011;63105;46.158;14.604;2023-07-20T13:30:33;3.85;;;2.08;;
46288;SDS011;63105;46.158;14.604;2023-07-20T13:32:58;3.45;;;1.90;;
46288;SDS011;63105;46.158;14.604;2023-07-20T13:35:23;3.23;;;1.67;;
46288;SDS011;63105;46.158;14.604;2023-07-20T13:37:48;3.53;;;1.60;;
46288;SDS011;63105;46.158;14.604;2023-07-20T13:40:15;3.22;;;1.70;;
46288;SDS011;63105;46.158;14.604;2023-07-20T13:42:41;3.95;;;1.83;;
46288;SDS011;63105;46.158;14.604;2023-07-20T13:45:07;3.90;;;1.70;;
46288;SDS011;63105;46.158;14.604;2023-07-20T13:47:32;3.72;;;1.98;;
46288;SDS011;63105;46.158;14.604;2023-07-20T13:49:58;3.65;;;1.80;;
46288;SDS011;63105;46.158;14.604;2023-07-20T13:52:23;3.00;;;1.50;;
46288;SDS011;63105;46.158;14.604;2023-07-20T13:54:48;3.30;;;1.83;;
46288;SDS011;63105;46.158;14.604;2023-07-20T13:57:14;2.90;;;1.77;;
46288;SDS011;63105;46.158;14.604;2023-07-20T13:59:40;4.07;;;2.15;;
46288;SDS011;63105;46.158;14.604;2023-07-20T14:02:05;3.50;;;1.95;;
46288;SDS011;63105;46.158;14.604;2023-07-20T14:04:30;3.07;;;1.70;;
46288;SDS011;63105;46.158;14.604;2023-07-20T14:06:56;3.80;;;1.97;;
46288;SDS011;63105;46.158;14.604;2023-07-20T14:09:21;3.50;;;1.97;;
46288;SDS011;63105;46.158;14.604;2023-07-20T14:11:46;3.33;;;1.67;;
46288;SDS011;63105;46.158;14.604;2023-07-20T14:14:11;3.20;;;1.70;;
46288;SDS011;63105;46.158;14.604;2023-07-20T14:16:37;3.08;;;1.85;;
46288;SDS011;63105;46.158;14.604;2023-07-20T14:19:02;3.60;;;1.90;;
46288;SDS011;63105;46.158;14.604;2023-07-20T14:21:29;3.00;;;1.70;;
46288;SDS011;63105;46.158;14.604;2023-07-20T14:23:56;3.05;;;1.77;;
46288;SDS011;63105;46.158;14.604;2023-07-20T14:26:22;3.38;;;1.92;;
46288;SDS011;63105;46.158;14.604;2023-07-20T14:28:47;3.53;;;1.80;;
46288;SDS011;63105;46.158;14.604;2023-07-20T14:31:13;3.80;;;2.10;;
46288;SDS011;63105;46.158;14.604;2023-07-20T14:33:38;3.42;;;1.88;;
46288;SDS011;63105;46.158;14.604;2023-07-20T14:36:04;3.50;;;1.90;;
46288;SDS011;63105;46.158;14.604;2023-07-20T14:38:30;3.70;;;2.10;;
46288;SDS011;63105;46.158;14.604;2023-07-20T14:40:56;3.50;;;2.10;;
46288;SDS011;63105;46.158;14.604;2023-07-20T14:43:22;3.53;;;1.75;;